Aérodrome :
LOGIN :

S'inscrire | Disclaimer

   EN    FR    IT 

 










Légende :    VFR   VFR Marginal   IFR   IFR Intensif   IFR Très Intensif
Visi : 
Plafond : 
>= 8 km
>= 3000ft
5 à 8 km
1000 à 3000 ft
1500m à 5 km
500 à 1000 ft
800 à 1500m
200 à 500 ft
< 800m
< 200 ft
Symboles :   Orages  Brouillard  Fortes neiges  Fortes précipitations  Vent > 20 kt
SIGMETs :   Divers  Orages  Givrage  Turbulence  Onde Orograph.  Cendres Volcan.






- Altitude de l'aérodrome : 124 ft
- Code IATA : AVN


LFMV - Avignon Caumont

DERNIER METAR :
  • 110300Z AUTO 21003KT 170V300 9999 FEW017/// BKN022/// BKN028/// ///CB 15/14 Q1009 TEMPO 3000 TSRA BKN010 BKN020CB

METARs EXPIRÉS :
  • 110230Z AUTO 16011KT 9999 SCT022/// BKN030/// BKN056/// ///CB 15/14 Q1008
  • 110200Z AUTO 16007KT 9999 SCT012/// BKN019/// OVC028/// ///CB 15/14 Q1008
  • 110130Z AUTO 16005KT 130V190 8000 -RA SCT007/// SCT013/// BKN018/// ///CB 15/14 Q1008
  • 110100Z AUTO 15008KT 6000 -RA BKN021/// BKN030/// OVC035/// ///CB 15/14 Q1008
  • 110030Z AUTO 15009KT 7000 2900 +RA FEW013/// BKN021/// BKN029/// ///CB 16/13 Q1008

TAF TAF LFMV
Valide du 11 à 03h jusqu'au 12 à 03h UTC


110200Z 1103/1203 16008KT 9999 FEW010 BKN020
TEMPO 1103/1108 3000 RA BKN010 BKN020
PROB40
TEMPO 1103/1116 3000 TSRA BKN010 BKN020CB
BECMG 1110/1112 24010KT
BECMG 1113/1115 33012KT
ATIS : +33 4 90 84 32 84



MET'MAP, la Météo Aéronautique d'un coup d'oeil ! - Copyright ORBIFLY Décembre 2007 - Disclaimer

ORBIFLY MET'MAP TEAM :

Programmation & Développement : Alexandra Zaïnal
Sur une idée originale de : Baudouin d'Aumeries
Assistance à la programmation : Marc-Olivier Méhu
Soutien technique & logistique : Manuel Goepfert

Contact : metmap@orbifly.com




SOURCES & CREDITS :

   NOAA